Adventuress — WCX8691 — position and weather

sailwx.info

Track history (hours):
 
Tides and Currents Weather Stations Pressure Air Temp Water Temp Dewpoint Dewpoint Depression Visibility Wind Speed Wind Dir Waves Ship Positions

Adventuress (United States)

Ship's website: http://www.soundexp.org/

More information available from US FCC via Universal Licensing System and Coast Guard Vessel Documentation Center.

Last reported at 2014-Sep-21 00:30 UTC. Time now 2014-Sep-22 00:18 UTC.
Position N 47°38' W 122°24'.

Length 43 m.

Type: Passenger vessel. MMSI: 367323180.

Date/timePositionNaut miles runAvg speedWind from/ knotsBaromVisibWave heightAir tempDewpointWater temp
2014-Sep-21 00:30N 47°38' W 122°24'1 0.3
2014-Sep-20 22:33N 47°37' W 122°23'0 0.1
2014-Sep-20 20:26N 47°37' W 122°23'1 0.8
2014-Sep-20 19:32N 47°37' W 122°22'1 0.8
2014-Sep-20 18:31N 47°37' W 122°23'0 0.0
2014-Sep-20 02:06N 47°38' W 122°23'0 0.0
2014-Sep-19 21:15N 47°38' W 122°23'0 0.4
2014-Sep-19 20:08N 47°37' W 122°23'2 1.8
2014-Sep-19 19:07N 47°37' W 122°26'2 3.1
2014-Sep-19 18:31N 47°37' W 122°23'0 0.0
2014-Sep-18 20:31N 47°37' W 122°23'0 0.4
2014-Sep-18 19:33N 47°37' W 122°23'1 0.9
2014-Sep-18 18:30N 47°37' W 122°22'5 0.2
2014-Sep-17 19:33N 47°35' W 122°28'2 2.5
2014-Sep-17 18:34N 47°37' W 122°29'2 2.4
2014-Sep-17 17:33N 47°40' W 122°29'4 3.7
2014-Sep-17 16:34N 47°43' W 122°32'0 0.0
2014-Sep-17 15:34N 47°43' W 122°32'0 0.0
2014-Sep-17 14:06N 47°43' W 122°32'0 0.0
2014-Sep-17 13:30N 47°43' W 122°32'0 0.0
2014-Sep-17 12:33N 47°43' W 122°32'0 0.0
2014-Sep-17 11:33N 47°43' W 122°32'0 0.0
2014-Sep-17 10:33N 47°43' W 122°32'0 0.0
2014-Sep-17 08:33N 47°43' W 122°32'0 0.0
2014-Sep-17 07:27N 47°43' W 122°32'0 0.0
2014-Sep-17 06:33N 47°43' W 122°32'0 0.0
2014-Sep-17 05:33N 47°43' W 122°32'0 0.0
2014-Sep-17 04:30N 47°43' W 122°32'0 0.0
2014-Sep-17 03:33N 47°43' W 122°32'0 0.0
2014-Sep-17 02:33N 47°43' W 122°32'0 0.0
2014-Sep-17 01:33N 47°43' W 122°32'0 0.0
2014-Sep-17 00:15N 47°43' W 122°32'0 0.4
2014-Sep-16 23:21N 47°43' W 122°32'1 1.1
2014-Sep-16 22:28N 47°43' W 122°30'1 0.9
2014-Sep-16 21:12N 47°44' W 122°32'0 4.2
2014-Sep-16 21:09N 47°44' W 122°31'3 4.3
2014-Sep-16 20:33N 47°42' W 122°29'0 3.9
2014-Sep-16 20:29N 47°42' W 122°29'5 0.3
2014-Sep-16 04:10N 47°38' W 122°23'0 0.0
2014-Sep-16 04:10N 47°38' W 122°23'0 0.0
2014-Sep-16 00:38N 47°38' W 122°23'0 0.0
2014-Sep-15 16:20N 47°38' W 122°23'0 0.0
2014-Sep-15 16:20N 47°38' W 122°23'0 0.0
2014-Sep-15 14:29N 47°38' W 122°23'0 0.0
2014-Sep-15 14:05N 47°38' W 122°23'0 0.0
2014-Sep-15 13:14N 47°38' W 122°23'0 0.0
2014-Sep-15 12:26N 47°38' W 122°23'0 0.0
2014-Sep-15 11:29N 47°38' W 122°23'0 0.0
2014-Sep-15 11:20N 47°38' W 122°23'0 0.0
2014-Sep-15 10:32N 47°38' W 122°23'0 0.0
2014-Sep-15 09:59N 47°38' W 122°23'0 0.0
2014-Sep-15 09:23N 47°38' W 122°23'0 0.0
2014-Sep-15 09:20N 47°38' W 122°23'0 0.0
2014-Sep-15 08:29N 47°38' W 122°23'0 0.0
2014-Sep-15 08:29N 47°38' W 122°23'0 0.0
2014-Sep-15 07:29N 47°38' W 122°23'0 0.0
2014-Sep-15 07:29N 47°38' W 122°23'0 0.0
2014-Sep-15 06:20N 47°38' W 122°23'0 0.0
2014-Sep-15 06:14N 47°38' W 122°23'0 0.0
2014-Sep-15 05:23N 47°38' W 122°23'0 0.0
2014-Sep-15 05:14N 47°38' W 122°23'0 0.0
2014-Sep-15 04:29N 47°38' W 122°23'0 0.0
2014-Sep-15 04:29N 47°38' W 122°23'0 0.0
2014-Sep-15 03:32N 47°38' W 122°23'0 0.0
2014-Sep-15 03:14N 47°38' W 122°23'0 0.0
2014-Sep-15 02:23N 47°38' W 122°23'0 0.0
2014-Sep-15 01:59N 47°38' W 122°23'0 0.0
2014-Sep-15 01:32N 47°38' W 122°23'0 0.0
2014-Sep-15 00:59N 47°38' W 122°23'0 1.1
2014-Sep-15 00:32N 47°37' W 122°23'0 0.2
2014-Sep-15 00:29N 47°37' W 122°23'2 1.6
2014-Sep-14 23:23N 47°38' W 122°26'1 4.3
2014-Sep-14 23:13N 47°37' W 122°27'2 2.6
2014-Sep-14 22:23N 47°37' W 122°23'0 0.0
2014-Sep-14 22:23N 47°37' W 122°23'0 0.5
2014-Sep-14 21:33N 47°38' W 122°23'0 0.0
2014-Sep-14 21:14N 47°38' W 122°23'1 1.0
2014-Sep-14 20:33N 47°37' W 122°23'0 0.0
2014-Sep-14 20:33N 47°37' W 122°23'2 1.6
2014-Sep-14 19:24N 47°38' W 122°25'1 2.0
2014-Sep-14 18:38N 47°37' W 122°23'0 0.0
2014-Sep-13 21:19N 47°38' W 122°23'0 0.6
2014-Sep-13 20:33N 47°37' W 122°23'3 2.3
2014-Sep-13 19:17N 47°38' W 122°27'3 0.2
2014-Sep-13 02:33N 47°37' W 122°23'1 1.1
2014-Sep-13 01:25N 47°37' W 122°22'6 6.8
2014-Sep-13 00:33N 47°39' W 122°30'6 6.3
2014-Sep-12 23:33N 47°45' W 122°28'7 6.8
2014-Sep-12 22:33N 47°52' W 122°29'18 0.7
2014-Sep-11 19:32N 48°07' W 122°45'3 1.9
2014-Sep-11 18:05N 48°06' W 122°41'2 4.5
2014-Sep-11 17:32N 48°04' W 122°40'8 0.6
2014-Sep-11 03:14N 47°55' W 122°41'  
Track history (hours):
 
Tides and Currents Weather Stations Pressure Air Temp Water Temp Dewpoint Dewpoint Depression Visibility Wind Speed Wind Dir Waves Ship Positions

Adventuress (United States)

Ship's website: http://www.soundexp.org/

More information available from US FCC via Universal Licensing System and Coast Guard Vessel Documentation Center.

Last reported at 2014-Sep-21 00:30 UTC. Time now 2014-Sep-22 00:18 UTC.
Position N 47°38' W 122°24'.

Length 43 m.

Type: Passenger vessel. MMSI: 367323180.

Date/timePositionNaut miles runAvg speedWind from/ knotsBaromVisibWave heightAir tempDewpointWater temp
2014-Sep-21 00:30N 47°38' W 122°24'1 0.3
2014-Sep-20 22:33N 47°37' W 122°23'0 0.1
2014-Sep-20 20:26N 47°37' W 122°23'1 0.8
2014-Sep-20 19:32N 47°37' W 122°22'1 0.8
2014-Sep-20 18:31N 47°37' W 122°23'0 0.0
2014-Sep-20 02:06N 47°38' W 122°23'0 0.0
2014-Sep-19 21:15N 47°38' W 122°23'0 0.4
2014-Sep-19 20:08N 47°37' W 122°23'2 1.8
2014-Sep-19 19:07N 47°37' W 122°26'2 3.1
2014-Sep-19 18:31N 47°37' W 122°23'0 0.0
2014-Sep-18 20:31N 47°37' W 122°23'0 0.4
2014-Sep-18 19:33N 47°37' W 122°23'1 0.9
2014-Sep-18 18:30N 47°37' W 122°22'5 0.2
2014-Sep-17 19:33N 47°35' W 122°28'2 2.5
2014-Sep-17 18:34N 47°37' W 122°29'2 2.4
2014-Sep-17 17:33N 47°40' W 122°29'4 3.7
2014-Sep-17 16:34N 47°43' W 122°32'0 0.0
2014-Sep-17 15:34N 47°43' W 122°32'0 0.0
2014-Sep-17 14:06N 47°43' W 122°32'0 0.0
2014-Sep-17 13:30N 47°43' W 122°32'0 0.0
2014-Sep-17 12:33N 47°43' W 122°32'0 0.0
2014-Sep-17 11:33N 47°43' W 122°32'0 0.0
2014-Sep-17 10:33N 47°43' W 122°32'0 0.0
2014-Sep-17 08:33N 47°43' W 122°32'0 0.0
2014-Sep-17 07:27N 47°43' W 122°32'0 0.0
2014-Sep-17 06:33N 47°43' W 122°32'0 0.0
2014-Sep-17 05:33N 47°43' W 122°32'0 0.0
2014-Sep-17 04:30N 47°43' W 122°32'0 0.0
2014-Sep-17 03:33N 47°43' W 122°32'0 0.0
2014-Sep-17 02:33N 47°43' W 122°32'0 0.0
2014-Sep-17 01:33N 47°43' W 122°32'0 0.0
2014-Sep-17 00:15N 47°43' W 122°32'0 0.4
2014-Sep-16 23:21N 47°43' W 122°32'1 1.1
2014-Sep-16 22:28N 47°43' W 122°30'1 0.9
2014-Sep-16 21:12N 47°44' W 122°32'0 4.2
2014-Sep-16 21:09N 47°44' W 122°31'3 4.3
2014-Sep-16 20:33N 47°42' W 122°29'0 3.9
2014-Sep-16 20:29N 47°42' W 122°29'5 0.3
2014-Sep-16 04:10N 47°38' W 122°23'0 0.0
2014-Sep-16 04:10N 47°38' W 122°23'0 0.0
2014-Sep-16 00:38N 47°38' W 122°23'0 0.0
2014-Sep-15 16:20N 47°38' W 122°23'0 0.0
2014-Sep-15 16:20N 47°38' W 122°23'0 0.0
2014-Sep-15 14:29N 47°38' W 122°23'0 0.0
2014-Sep-15 14:05N 47°38' W 122°23'0 0.0
2014-Sep-15 13:14N 47°38' W 122°23'0 0.0
2014-Sep-15 12:26N 47°38' W 122°23'0 0.0
2014-Sep-15 11:29N 47°38' W 122°23'0 0.0
2014-Sep-15 11:20N 47°38' W 122°23'0 0.0
2014-Sep-15 10:32N 47°38' W 122°23'0 0.0
2014-Sep-15 09:59N 47°38' W 122°23'0 0.0
2014-Sep-15 09:23N 47°38' W 122°23'0 0.0
2014-Sep-15 09:20N 47°38' W 122°23'0 0.0
2014-Sep-15 08:29N 47°38' W 122°23'0 0.0
2014-Sep-15 08:29N 47°38' W 122°23'0 0.0
2014-Sep-15 07:29N 47°38' W 122°23'0 0.0
2014-Sep-15 07:29N 47°38' W 122°23'0 0.0
2014-Sep-15 06:20N 47°38' W 122°23'0 0.0
2014-Sep-15 06:14N 47°38' W 122°23'0 0.0
2014-Sep-15 05:23N 47°38' W 122°23'0 0.0
2014-Sep-15 05:14N 47°38' W 122°23'0 0.0
2014-Sep-15 04:29N 47°38' W 122°23'0 0.0
2014-Sep-15 04:29N 47°38' W 122°23'0 0.0
2014-Sep-15 03:32N 47°38' W 122°23'0 0.0
2014-Sep-15 03:14N 47°38' W 122°23'0 0.0
2014-Sep-15 02:23N 47°38' W 122°23'0 0.0
2014-Sep-15 01:59N 47°38' W 122°23'0 0.0
2014-Sep-15 01:32N 47°38' W 122°23'0 0.0
2014-Sep-15 00:59N 47°38' W 122°23'0 1.1
2014-Sep-15 00:32N 47°37' W 122°23'0 0.2
2014-Sep-15 00:29N 47°37' W 122°23'2 1.6
2014-Sep-14 23:23N 47°38' W 122°26'1 4.3
2014-Sep-14 23:13N 47°37' W 122°27'2 2.6
2014-Sep-14 22:23N 47°37' W 122°23'0 0.0
2014-Sep-14 22:23N 47°37' W 122°23'0 0.5
2014-Sep-14 21:33N 47°38' W 122°23'0 0.0
2014-Sep-14 21:14N 47°38' W 122°23'1 1.0
2014-Sep-14 20:33N 47°37' W 122°23'0 0.0
2014-Sep-14 20:33N 47°37' W 122°23'2 1.6
2014-Sep-14 19:24N 47°38' W 122°25'1 2.0
2014-Sep-14 18:38N 47°37' W 122°23'0 0.0
2014-Sep-13 21:19N 47°38' W 122°23'0 0.6
2014-Sep-13 20:33N 47°37' W 122°23'3 2.3
2014-Sep-13 19:17N 47°38' W 122°27'3 0.2
2014-Sep-13 02:33N 47°37' W 122°23'1 1.1
2014-Sep-13 01:25N 47°37' W 122°22'6 6.8
2014-Sep-13 00:33N 47°39' W 122°30'6 6.3
2014-Sep-12 23:33N 47°45' W 122°28'7 6.8
2014-Sep-12 22:33N 47°52' W 122°29'18 0.7
2014-Sep-11 19:32N 48°07' W 122°45'3 1.9
2014-Sep-11 18:05N 48°06' W 122°41'2 4.5
2014-Sep-11 17:32N 48°04' W 122°40'8 0.6
2014-Sep-11 03:14N 47°55' W 122°41'  

Dump ship's entire track history